sensor_id;sensor_type;location;lat;lon;timestamp;pressure;altitude;pressure_sealevel;temperature;humidity
76819;BME280;65772;51.096;17.006;2023-05-10T00:01:09;100286.56;;;15.61;38.02
76819;BME280;65772;51.096;17.006;2023-05-10T00:03:39;100283.45;;;15.58;38.05
76819;BME280;65772;51.096;17.006;2023-05-10T00:06:10;100280.98;;;15.54;38.16
76819;BME280;65772;51.096;17.006;2023-05-10T00:08:41;100278.02;;;15.51;38.34
76819;BME280;65772;51.096;17.006;2023-05-10T00:11:12;100275.59;;;15.49;38.42
76819;BME280;65772;51.096;17.006;2023-05-10T00:13:42;100274.73;;;15.47;38.50
76819;BME280;65772;51.096;17.006;2023-05-10T00:16:13;100269.73;;;15.45;38.44
76819;BME280;65772;51.096;17.006;2023-05-10T00:18:44;100270.90;;;15.43;38.53
76819;BME280;65772;51.096;17.006;2023-05-10T00:21:14;100270.19;;;15.41;38.67
76819;BME280;65772;51.096;17.006;2023-05-10T00:23:45;100269.48;;;15.39;38.64
76819;BME280;65772;51.096;17.006;2023-05-10T00:26:15;100263.96;;;15.37;38.65
76819;BME280;65772;51.096;17.006;2023-05-10T00:28:47;100266.20;;;15.35;38.77
76819;BME280;65772;51.096;17.006;2023-05-10T00:31:17;100269.46;;;15.34;38.84
76819;BME280;65772;51.096;17.006;2023-05-10T00:33:48;100266.35;;;15.32;38.87
76819;BME280;65772;51.096;17.006;2023-05-10T00:36:18;100268.91;;;15.31;39.00
76819;BME280;65772;51.096;17.006;2023-05-10T00:38:50;100269.06;;;15.30;39.07
76819;BME280;65772;51.096;17.006;2023-05-10T00:41:20;100267.33;;;15.27;39.10
76819;BME280;65772;51.096;17.006;2023-05-10T00:43:51;100263.88;;;15.24;39.13
76819;BME280;65772;51.096;17.006;2023-05-10T00:46:22;100255.73;;;15.20;39.37
76819;BME280;65772;51.096;17.006;2023-05-10T00:48:54;100255.70;;;15.16;39.29
76819;BME280;65772;51.096;17.006;2023-05-10T00:51:25;100254.66;;;15.13;39.50
76819;BME280;65772;51.096;17.006;2023-05-10T00:53:56;100254.63;;;15.11;39.66
76819;BME280;65772;51.096;17.006;2023-05-10T00:56:27;100255.98;;;15.10;39.72
76819;BME280;65772;51.096;17.006;2023-05-10T00:58:59;100251.14;;;15.06;39.89
76819;BME280;65772;51.096;17.006;2023-05-10T01:01:30;100249.91;;;15.04;39.92
76819;BME280;65772;51.096;17.006;2023-05-10T01:04:00;100252.64;;;15.02;39.87
76819;BME280;65772;51.096;17.006;2023-05-10T01:06:32;100252.63;;;15.00;39.95
76819;BME280;65772;51.096;17.006;2023-05-10T01:09:02;100250.87;;;14.97;40.09
76819;BME280;65772;51.096;17.006;2023-05-10T01:11:33;100247.23;;;14.94;40.25
76819;BME280;65772;51.096;17.006;2023-05-10T01:14:05;100245.67;;;14.91;40.16
76819;BME280;65772;51.096;17.006;2023-05-10T01:16:38;100244.77;;;14.88;40.10
76819;BME280;65772;51.096;17.006;2023-05-10T01:19:15;100243.86;;;14.84;40.39
76819;BME280;65772;51.096;17.006;2023-05-10T01:21:52;100238.00;;;14.81;40.24
76819;BME280;65772;51.096;17.006;2023-05-10T01:24:44;100236.60;;;14.79;40.50
76819;BME280;65772;51.096;17.006;2023-05-10T01:27:30;100236.58;;;14.77;40.49
76819;BME280;65772;51.096;17.006;2023-05-10T01:30:23;100241.33;;;14.72;40.77
76819;BME280;65772;51.096;17.006;2023-05-10T01:33:02;100244.55;;;14.68;40.83
76819;BME280;65772;51.096;17.006;2023-05-10T01:35:43;100239.88;;;14.65;41.02
76819;BME280;65772;51.096;17.006;2023-05-10T01:38:20;100241.75;;;14.64;41.00
76819;BME280;65772;51.096;17.006;2023-05-10T01:41:00;100241.05;;;14.63;40.91
76819;BME280;65772;51.096;17.006;2023-05-10T01:43:37;100242.59;;;14.62;40.79
76819;BME280;65772;51.096;17.006;2023-05-10T01:46:14;100243.26;;;14.59;41.00
76819;BME280;65772;51.096;17.006;2023-05-10T01:48:52;100244.92;;;14.55;41.04
76819;BME280;65772;51.096;17.006;2023-05-10T01:51:27;100240.94;;;14.52;41.36
76819;BME280;65772;51.096;17.006;2023-05-10T01:54:02;100241.62;;;14.51;41.38
76819;BME280;65772;51.096;17.006;2023-05-10T01:56:36;100238.19;;;14.50;41.49
76819;BME280;65772;51.096;17.006;2023-05-10T01:59:13;100233.35;;;14.49;41.39
76819;BME280;65772;51.096;17.006;2023-05-10T02:01:46;100229.19;;;14.46;41.49
76819;BME280;65772;51.096;17.006;2023-05-10T02:04:20;100230.54;;;14.44;41.67
76819;BME280;65772;51.096;17.006;2023-05-10T02:06:52;100228.45;;;14.43;41.80
76819;BME280;65772;51.096;17.006;2023-05-10T02:09:25;100225.52;;;14.40;41.63
76819;BME280;65772;51.096;17.006;2023-05-10T02:11:58;100223.94;;;14.39;41.63
76819;BME280;65772;51.096;17.006;2023-05-10T02:14:28;100223.08;;;14.38;41.93
76819;BME280;65772;51.096;17.006;2023-05-10T02:16:59;100227.50;;;14.36;41.76
76819;BME280;65772;51.096;17.006;2023-05-10T02:19:33;100224.73;;;14.35;41.78
76819;BME280;65772;51.096;17.006;2023-05-10T02:22:05;100219.04;;;14.34;41.77
76819;BME280;65772;51.096;17.006;2023-05-10T02:24:37;100221.77;;;14.33;41.99
76819;BME280;65772;51.096;17.006;2023-05-10T02:27:09;100222.95;;;14.31;41.91
76819;BME280;65772;51.096;17.006;2023-05-10T02:29:41;100220.02;;;14.27;42.16
76819;BME280;65772;51.096;17.006;2023-05-10T02:32:13;100224.95;;;14.25;41.98
76819;BME280;65772;51.096;17.006;2023-05-10T02:34:46;100218.76;;;14.24;41.99
76819;BME280;65772;51.096;17.006;2023-05-10T02:37:22;100223.38;;;14.23;42.23
76819;BME280;65772;51.096;17.006;2023-05-10T02:39:55;100224.20;;;14.21;42.11
76819;BME280;65772;51.096;17.006;2023-05-10T02:42:28;100221.27;;;14.18;42.12
76819;BME280;65772;51.096;17.006;2023-05-10T02:45:02;100219.21;;;14.18;42.43
76819;BME280;65772;51.096;17.006;2023-05-10T02:47:34;100218.70;;;14.18;42.33
76819;BME280;65772;51.096;17.006;2023-05-10T02:50:06;100217.99;;;14.17;42.30
76819;BME280;65772;51.096;17.006;2023-05-10T02:52:42;100218.98;;;14.15;42.22
76819;BME280;65772;51.096;17.006;2023-05-10T02:55:16;100217.59;;;14.14;42.38
76819;BME280;65772;51.096;17.006;2023-05-10T02:57:53;100220.14;;;14.11;42.64
76819;BME280;65772;51.096;17.006;2023-05-10T03:00:25;100217.02;;;14.10;42.54
76819;BME280;65772;51.096;17.006;2023-05-10T03:02:55;100222.00;;;14.08;42.68
76819;BME280;65772;51.096;17.006;2023-05-10T03:05:27;100222.85;;;14.07;42.70
76819;BME280;65772;51.096;17.006;2023-05-10T03:07:58;100222.65;;;14.06;42.49
76819;BME280;65772;51.096;17.006;2023-05-10T03:10:30;100220.74;;;14.05;42.67
76819;BME280;65772;51.096;17.006;2023-05-10T03:13:12;100218.83;;;14.03;42.55
76819;BME280;65772;51.096;17.006;2023-05-10T03:15:53;100223.78;;;14.01;42.63
76819;BME280;65772;51.096;17.006;2023-05-10T03:18:33;100224.45;;;13.99;42.71
76819;BME280;65772;51.096;17.006;2023-05-10T03:21:08;100226.99;;;13.97;42.74
76819;BME280;65772;51.096;17.006;2023-05-10T03:23:46;100223.37;;;13.95;42.86
76819;BME280;65772;51.096;17.006;2023-05-10T03:26:20;100223.85;;;13.93;42.82
76819;BME280;65772;51.096;17.006;2023-05-10T03:28:59;100219.55;;;13.92;42.58
76819;BME280;65772;51.096;17.006;2023-05-10T03:31:30;100219.87;;;13.91;42.81
76819;BME280;65772;51.096;17.006;2023-05-10T03:34:01;100221.90;;;13.90;42.53
76819;BME280;65772;51.096;17.006;2023-05-10T03:36:32;100221.02;;;13.87;42.71
76819;BME280;65772;51.096;17.006;2023-05-10T03:39:03;100223.06;;;13.85;42.87
76819;BME280;65772;51.096;17.006;2023-05-10T03:41:34;100219.11;;;13.84;42.78
76819;BME280;65772;51.096;17.006;2023-05-10T03:44:05;100218.74;;;13.84;43.19
76819;BME280;65772;51.096;17.006;2023-05-10T03:46:35;100216.84;;;13.83;42.58
76819;BME280;65772;51.096;17.006;2023-05-10T03:49:06;100216.49;;;13.82;42.54
76819;BME280;65772;51.096;17.006;2023-05-10T03:51:38;100212.88;;;13.82;42.71
76819;BME280;65772;51.096;17.006;2023-05-10T03:54:09;100211.83;;;13.81;42.58
76819;BME280;65772;51.096;17.006;2023-05-10T03:56:39;100214.39;;;13.80;42.57
76819;BME280;65772;51.096;17.006;2023-05-10T03:59:10;100215.40;;;13.79;42.83
76819;BME280;65772;51.096;17.006;2023-05-10T04:01:40;100214.70;;;13.78;42.66
76819;BME280;65772;51.096;17.006;2023-05-10T04:04:11;100212.30;;;13.77;42.97
76819;BME280;65772;51.096;17.006;2023-05-10T04:06:42;100212.80;;;13.76;43.05
76819;BME280;65772;51.096;17.006;2023-05-10T04:09:12;100213.14;;;13.75;42.84
76819;BME280;65772;51.096;17.006;2023-05-10T04:11:43;100218.45;;;13.74;43.03
76819;BME280;65772;51.096;17.006;2023-05-10T04:14:13;100217.05;;;13.73;42.96
76819;BME280;65772;51.096;17.006;2023-05-10T04:16:44;100214.46;;;13.72;42.90
76819;BME280;65772;51.096;17.006;2023-05-10T04:19:14;100212.56;;;13.72;43.12
76819;BME280;65772;51.096;17.006;2023-05-10T04:21:45;100214.11;;;13.72;42.90
76819;BME280;65772;51.096;17.006;2023-05-10T04:24:15;100211.35;;;13.71;43.16
76819;BME280;65772;51.096;17.006;2023-05-10T04:26:46;100212.23;;;13.72;43.23
76819;BME280;65772;51.096;17.006;2023-05-10T04:29:16;100211.02;;;13.72;42.94
76819;BME280;65772;51.096;17.006;2023-05-10T04:31:47;100211.20;;;13.73;42.95
76819;BME280;65772;51.096;17.006;2023-05-10T04:34:18;100208.32;;;13.74;42.99
76819;BME280;65772;51.096;17.006;2023-05-10T04:36:51;100211.23;;;13.74;42.82
76819;BME280;65772;51.096;17.006;2023-05-10T04:39:21;100205.42;;;13.76;42.87
76819;BME280;65772;51.096;17.006;2023-05-10T04:41:54;100210.92;;;13.78;42.95
76819;BME280;65772;51.096;17.006;2023-05-10T04:44:25;100209.95;;;13.80;42.69
76819;BME280;65772;51.096;17.006;2023-05-10T04:46:55;100212.02;;;13.81;42.91
76819;BME280;65772;51.096;17.006;2023-05-10T04:49:26;100211.33;;;13.82;42.94
76819;BME280;65772;51.096;17.006;2023-05-10T04:51:56;100211.34;;;13.82;42.76
76819;BME280;65772;51.096;17.006;2023-05-10T04:54:27;100209.63;;;13.83;42.75
76819;BME280;65772;51.096;17.006;2023-05-10T04:56:57;100214.97;;;13.83;43.07
76819;BME280;65772;51.096;17.006;2023-05-10T04:59:28;100213.95;;;13.85;42.99
76819;BME280;65772;51.096;17.006;2023-05-10T05:01:58;100213.65;;;13.86;42.94
76819;BME280;65772;51.096;17.006;2023-05-10T05:04:29;100210.73;;;13.88;42.99
76819;BME280;65772;51.096;17.006;2023-05-10T05:07:00;100212.14;;;13.91;43.04
76819;BME280;65772;51.096;17.006;2023-05-10T05:09:30;100210.80;;;13.93;43.02
76819;BME280;65772;51.096;17.006;2023-05-10T05:12:01;100211.69;;;13.95;43.16
76819;BME280;65772;51.096;17.006;2023-05-10T05:14:32;100211.55;;;13.97;42.73
76819;BME280;65772;51.096;17.006;2023-05-10T05:17:02;100212.93;;;13.99;42.79
76819;BME280;65772;51.096;17.006;2023-05-10T05:19:33;100208.48;;;14.00;42.70
76819;BME280;65772;51.096;17.006;2023-05-10T05:22:06;100208.33;;;14.01;42.93
76819;BME280;65772;51.096;17.006;2023-05-10T05:24:36;100204.42;;;14.04;43.78
76819;BME280;65772;51.096;17.006;2023-05-10T05:27:07;100209.10;;;14.07;44.42
76819;BME280;65772;51.096;17.006;2023-05-10T05:29:38;100209.16;;;14.12;45.16
76819;BME280;65772;51.096;17.006;2023-05-10T05:32:09;100206.33;;;14.17;45.32
76819;BME280;65772;51.096;17.006;2023-05-10T05:34:40;100206.02;;;14.22;44.92
76819;BME280;65772;51.096;17.006;2023-05-10T05:37:15;100207.14;;;14.28;45.06
76819;BME280;65772;51.096;17.006;2023-05-10T05:39:45;100205.62;;;14.32;44.55
76819;BME280;65772;51.096;17.006;2023-05-10T05:42:16;100203.95;;;14.35;44.54
76819;BME280;65772;51.096;17.006;2023-05-10T05:44:48;100203.63;;;14.37;44.46
76819;BME280;65772;51.096;17.006;2023-05-10T05:47:18;100201.98;;;14.39;44.34
76819;BME280;65772;51.096;17.006;2023-05-10T05:49:49;100203.89;;;14.40;44.15
76819;BME280;65772;51.096;17.006;2023-05-10T05:52:19;100205.09;;;14.42;44.13
76819;BME280;65772;51.096;17.006;2023-05-10T05:54:50;100206.71;;;14.47;44.09
76819;BME280;65772;51.096;17.006;2023-05-10T05:57:21;100208.65;;;14.52;44.10
76819;BME280;65772;51.096;17.006;2023-05-10T05:59:52;100206.28;;;14.55;43.88
76819;BME280;65772;51.096;17.006;2023-05-10T06:02:22;100207.70;;;14.58;43.75
76819;BME280;65772;51.096;17.006;2023-05-10T06:04:53;100206.86;;;14.63;43.49
76819;BME280;65772;51.096;17.006;2023-05-10T06:07:24;100205.20;;;14.67;43.23
76819;BME280;65772;51.096;17.006;2023-05-10T06:09:54;100201.61;;;14.69;43.36
76819;BME280;65772;51.096;17.006;2023-05-10T06:12:25;100206.11;;;14.71;43.33
76819;BME280;65772;51.096;17.006;2023-05-10T06:14:55;100204.05;;;14.73;43.48
76819;BME280;65772;51.096;17.006;2023-05-10T06:17:26;100209.42;;;14.77;43.20
76819;BME280;65772;51.096;17.006;2023-05-10T06:19:56;100205.69;;;14.80;43.05
76819;BME280;65772;51.096;17.006;2023-05-10T06:22:27;100207.77;;;14.84;43.23
76819;BME280;65772;51.096;17.006;2023-05-10T06:24:57;100209.88;;;14.87;43.32
76819;BME280;65772;51.096;17.006;2023-05-10T06:27:28;100211.48;;;14.92;43.12
76819;BME280;65772;51.096;17.006;2023-05-10T06:29:59;100207.02;;;14.96;43.00
76819;BME280;65772;51.096;17.006;2023-05-10T06:32:41;100209.14;;;15.00;43.02
76819;BME280;65772;51.096;17.006;2023-05-10T06:35:13;100203.33;;;15.04;42.83
76819;BME280;65772;51.096;17.006;2023-05-10T06:37:44;100206.80;;;15.08;42.99
76819;BME280;65772;51.096;17.006;2023-05-10T06:40:16;100203.40;;;15.13;42.91
76819;BME280;65772;51.096;17.006;2023-05-10T06:42:47;100196.71;;;15.16;42.93
76819;BME280;65772;51.096;17.006;2023-05-10T06:45:17;100194.19;;;15.21;43.15
76819;BME280;65772;51.096;17.006;2023-05-10T06:47:48;100195.77;;;15.24;42.92
76819;BME280;65772;51.096;17.006;2023-05-10T06:50:19;100196.48;;;15.29;42.80
76819;BME280;65772;51.096;17.006;2023-05-10T06:52:50;100194.62;;;15.32;42.68
76819;BME280;65772;51.096;17.006;2023-05-10T06:55:21;100198.77;;;15.36;42.69
76819;BME280;65772;51.096;17.006;2023-05-10T06:57:52;100198.46;;;15.41;42.51
76819;BME280;65772;51.096;17.006;2023-05-10T07:00:23;100196.95;;;15.44;42.54
76819;BME280;65772;51.096;17.006;2023-05-10T07:02:54;100202.98;;;15.49;42.70
76819;BME280;65772;51.096;17.006;2023-05-10T07:05:25;100200.65;;;15.54;42.60
76819;BME280;65772;51.096;17.006;2023-05-10T07:07:57;100202.05;;;15.58;42.64
76819;BME280;65772;51.096;17.006;2023-05-10T07:10:27;100198.12;;;15.62;42.50
76819;BME280;65772;51.096;17.006;2023-05-10T07:12:58;100200.91;;;15.65;42.71
76819;BME280;65772;51.096;17.006;2023-05-10T07:15:30;100198.52;;;15.70;42.60
76819;BME280;65772;51.096;17.006;2023-05-10T07:18:01;100194.24;;;15.73;42.68
76819;BME280;65772;51.096;17.006;2023-05-10T07:20:33;100192.37;;;15.78;42.56
76819;BME280;65772;51.096;17.006;2023-05-10T07:23:04;100190.67;;;15.82;42.68
76819;BME280;65772;51.096;17.006;2023-05-10T07:25:34;100194.48;;;15.86;42.60
76819;BME280;65772;51.096;17.006;2023-05-10T07:28:05;100186.92;;;15.90;42.38
76819;BME280;65772;51.096;17.006;2023-05-10T07:30:35;100184.70;;;15.94;42.20
76819;BME280;65772;51.096;17.006;2023-05-10T07:33:06;100182.14;;;15.96;42.36
76819;BME280;65772;51.096;17.006;2023-05-10T07:35:38;100174.05;;;15.99;42.44
76819;BME280;65772;51.096;17.006;2023-05-10T07:38:08;100172.86;;;16.02;42.63
76819;BME280;65772;51.096;17.006;2023-05-10T07:40:40;100171.16;;;16.06;42.53
76819;BME280;65772;51.096;17.006;2023-05-10T07:43:10;100167.04;;;16.09;42.60
76819;BME280;65772;51.096;17.006;2023-05-10T07:45:41;100166.52;;;16.13;42.72
76819;BME280;65772;51.096;17.006;2023-05-10T07:48:11;100169.31;;;16.17;42.83
76819;BME280;65772;51.096;17.006;2023-05-10T07:50:42;100167.27;;;16.20;42.77
76819;BME280;65772;51.096;17.006;2023-05-10T07:53:13;100167.79;;;16.24;42.84
76819;BME280;65772;51.096;17.006;2023-05-10T07:55:43;100169.17;;;16.27;42.85
76819;BME280;65772;51.096;17.006;2023-05-10T07:58:14;100166.77;;;16.30;43.01
76819;BME280;65772;51.096;17.006;2023-05-10T08:00:44;100169.02;;;16.33;43.09
76819;BME280;65772;51.096;17.006;2023-05-10T08:03:15;100168.16;;;16.37;42.96
76819;BME280;65772;51.096;17.006;2023-05-10T08:05:46;100163.88;;;16.39;42.69
76819;BME280;65772;51.096;17.006;2023-05-10T08:08:16;100166.98;;;16.42;42.90
76819;BME280;65772;51.096;17.006;2023-05-10T08:10:47;100161.64;;;16.44;43.01
76819;BME280;65772;51.096;17.006;2023-05-10T08:13:17;100160.27;;;16.47;43.18
76819;BME280;65772;51.096;17.006;2023-05-10T08:15:48;100160.98;;;16.51;43.21
76819;BME280;65772;51.096;17.006;2023-05-10T08:18:20;100159.08;;;16.54;43.09
76819;BME280;65772;51.096;17.006;2023-05-10T08:20:51;100156.48;;;16.56;42.81
76819;BME280;65772;51.096;17.006;2023-05-10T08:23:22;100153.58;;;16.58;42.79
76819;BME280;65772;51.096;17.006;2023-05-10T08:25:52;100150.82;;;16.59;42.71
76819;BME280;65772;51.096;17.006;2023-05-10T08:28:23;100148.42;;;16.61;42.82
76819;BME280;65772;51.096;17.006;2023-05-10T08:30:53;100151.55;;;16.63;42.77
76819;BME280;65772;51.096;17.006;2023-05-10T08:33:24;100145.16;;;16.64;42.95
76819;BME280;65772;51.096;17.006;2023-05-10T08:35:55;100148.09;;;16.65;43.09
76819;BME280;65772;51.096;17.006;2023-05-10T08:38:25;100146.21;;;16.68;43.28
76819;BME280;65772;51.096;17.006;2023-05-10T08:40:56;100143.29;;;16.70;43.30
76819;BME280;65772;51.096;17.006;2023-05-10T08:43:29;100148.46;;;16.73;43.35
76819;BME280;65772;51.096;17.006;2023-05-10T08:46:01;100144.66;;;16.76;43.35
76819;BME280;65772;51.096;17.006;2023-05-10T08:48:35;100141.56;;;16.79;43.31
76819;BME280;65772;51.096;17.006;2023-05-10T08:51:07;100142.95;;;16.82;43.43
76819;BME280;65772;51.096;17.006;2023-05-10T08:53:37;100142.94;;;16.86;43.45
76819;BME280;65772;51.096;17.006;2023-05-10T08:56:08;100140.02;;;16.87;43.33
76819;BME280;65772;51.096;17.006;2023-05-10T08:58:39;100138.13;;;16.90;43.42
76819;BME280;65772;51.096;17.006;2023-05-10T09:01:10;100137.62;;;16.94;43.67
76819;BME280;65772;51.096;17.006;2023-05-10T09:03:41;100131.05;;;16.97;43.72
76819;BME280;65772;51.096;17.006;2023-05-10T09:06:13;100136.58;;;17.00;43.95
76819;BME280;65772;51.096;17.006;2023-05-10T09:08:44;100138.65;;;17.04;43.83
76819;BME280;65772;51.096;17.006;2023-05-10T09:11:15;100139.32;;;17.07;43.34
76819;BME280;65772;51.096;17.006;2023-05-10T09:13:46;100136.91;;;17.10;43.18
76819;BME280;65772;51.096;17.006;2023-05-10T09:16:17;100133.81;;;17.11;43.17
76819;BME280;65772;51.096;17.006;2023-05-10T09:18:50;100129.50;;;17.14;43.21
76819;BME280;65772;51.096;17.006;2023-05-10T09:21:21;100131.89;;;17.17;43.38
76819;BME280;65772;51.096;17.006;2023-05-10T09:23:52;100129.14;;;17.19;43.41
76819;BME280;65772;51.096;17.006;2023-05-10T09:26:25;100131.90;;;17.23;43.59
76819;BME280;65772;51.096;17.006;2023-05-10T09:28:57;100132.41;;;17.27;43.31
76819;BME280;65772;51.096;17.006;2023-05-10T09:31:44;100133.61;;;17.29;43.13
76819;BME280;65772;51.096;17.006;2023-05-10T09:34:19;100135.16;;;17.33;43.50
76819;BME280;65772;51.096;17.006;2023-05-10T09:36:58;100136.89;;;17.37;43.77
76819;BME280;65772;51.096;17.006;2023-05-10T09:39:34;100132.21;;;17.40;43.60
76819;BME280;65772;51.096;17.006;2023-05-10T09:42:06;100134.45;;;17.44;43.72
76819;BME280;65772;51.096;17.006;2023-05-10T09:44:37;100140.48;;;17.49;43.83
76819;BME280;65772;51.096;17.006;2023-05-10T09:47:10;100139.27;;;17.53;43.65
76819;BME280;65772;51.096;17.006;2023-05-10T09:49:40;100140.98;;;17.58;43.71
76819;BME280;65772;51.096;17.006;2023-05-10T09:52:11;100141.50;;;17.62;43.48
76819;BME280;65772;51.096;17.006;2023-05-10T09:54:47;100135.66;;;17.67;43.43
76819;BME280;65772;51.096;17.006;2023-05-10T09:57:24;100125.95;;;17.71;43.14
76819;BME280;65772;51.096;17.006;2023-05-10T09:59:54;100119.90;;;17.75;43.44
76819;BME280;65772;51.096;17.006;2023-05-10T10:02:31;100124.36;;;17.80;43.79
76819;BME280;65772;51.096;17.006;2023-05-10T10:05:02;100123.84;;;17.85;43.66
76819;BME280;65772;51.096;17.006;2023-05-10T10:07:34;100118.30;;;17.90;43.28
76819;BME280;65772;51.096;17.006;2023-05-10T10:10:06;100116.89;;;17.95;42.98
76819;BME280;65772;51.096;17.006;2023-05-10T10:12:41;100113.75;;;18.01;42.82
76819;BME280;65772;51.096;17.006;2023-05-10T10:15:12;100112.34;;;18.06;42.76
76819;BME280;65772;51.096;17.006;2023-05-10T10:17:45;100110.58;;;18.12;42.74
76819;BME280;65772;51.096;17.006;2023-05-10T10:20:16;100110.73;;;18.18;42.13
76819;BME280;65772;51.096;17.006;2023-05-10T10:22:47;100109.30;;;18.23;41.98
76819;BME280;65772;51.096;17.006;2023-05-10T10:25:19;100104.27;;;18.30;41.45
76819;BME280;65772;51.096;17.006;2023-05-10T10:28:02;100096.79;;;18.35;41.35
76819;BME280;65772;51.096;17.006;2023-05-10T10:30:41;100102.48;;;18.40;41.69
76819;BME280;65772;51.096;17.006;2023-05-10T10:33:38;100102.44;;;18.46;41.77
76819;BME280;65772;51.096;17.006;2023-05-10T10:36:11;100114.49;;;18.53;41.31
76819;BME280;65772;51.096;17.006;2023-05-10T10:38:59;100105.65;;;18.58;40.78
76819;BME280;65772;51.096;17.006;2023-05-10T10:41:32;100102.70;;;18.63;40.79
76819;BME280;65772;51.096;17.006;2023-05-10T10:44:24;100108.70;;;18.70;41.00
76819;BME280;65772;51.096;17.006;2023-05-10T10:47:03;100112.43;;;18.77;40.79
76819;BME280;65772;51.096;17.006;2023-05-10T10:49:42;100109.46;;;18.83;40.45
76819;BME280;65772;51.096;17.006;2023-05-10T10:52:22;100104.91;;;18.86;39.97
76819;BME280;65772;51.096;17.006;2023-05-10T10:55:00;100102.30;;;18.89;40.28
76819;BME280;65772;51.096;17.006;2023-05-10T10:57:33;100105.91;;;18.94;40.11
76819;BME280;65772;51.096;17.006;2023-05-10T11:00:33;100097.73;;;18.98;39.62
76819;BME280;65772;51.096;17.006;2023-05-10T11:03:07;100093.71;;;19.02;39.90
76819;BME280;65772;51.096;17.006;2023-05-10T11:05:42;100095.23;;;19.07;40.15
76819;BME280;65772;51.096;17.006;2023-05-10T11:08:18;100094.48;;;19.12;40.17
76819;BME280;65772;51.096;17.006;2023-05-10T11:11:03;100094.94;;;19.19;39.94
76819;BME280;65772;51.096;17.006;2023-05-10T11:13:39;100097.14;;;19.25;39.93
76819;BME280;65772;51.096;17.006;2023-05-10T11:16:15;100091.70;;;19.30;39.86
76819;BME280;65772;51.096;17.006;2023-05-10T11:19:09;100084.39;;;19.36;39.85
76819;BME280;65772;51.096;17.006;2023-05-10T11:21:48;100084.64;;;19.44;39.80
76819;BME280;65772;51.096;17.006;2023-05-10T11:24:20;100085.48;;;19.50;39.47
76819;BME280;65772;51.096;17.006;2023-05-10T11:26:52;100080.92;;;19.54;39.11
76819;BME280;65772;51.096;17.006;2023-05-10T11:29:24;100077.23;;;19.59;39.16
76819;BME280;65772;51.096;17.006;2023-05-10T11:31:56;100077.88;;;19.62;39.15
76819;BME280;65772;51.096;17.006;2023-05-10T11:34:29;100078.88;;;19.66;39.17
76819;BME280;65772;51.096;17.006;2023-05-10T11:37:01;100075.33;;;19.72;39.13
76819;BME280;65772;51.096;17.006;2023-05-10T11:39:32;100073.02;;;19.78;38.92
76819;BME280;65772;51.096;17.006;2023-05-10T11:42:03;100072.77;;;19.84;38.72
76819;BME280;65772;51.096;17.006;2023-05-10T11:44:34;100073.71;;;19.91;38.91
76819;BME280;65772;51.096;17.006;2023-05-10T11:47:06;100076.45;;;19.92;38.51
76819;BME280;65772;51.096;17.006;2023-05-10T11:49:36;100077.16;;;19.91;38.17
76819;BME280;65772;51.096;17.006;2023-05-10T11:52:07;100073.73;;;19.90;38.43
76819;BME280;65772;51.096;17.006;2023-05-10T11:54:46;100071.27;;;19.91;38.40
76819;BME280;65772;51.096;17.006;2023-05-10T11:57:25;100070.02;;;19.95;38.37
76819;BME280;65772;51.096;17.006;2023-05-10T11:59:57;100073.08;;;19.99;38.46
76819;BME280;65772;51.096;17.006;2023-05-10T12:02:28;100073.39;;;20.02;38.33
76819;BME280;65772;51.096;17.006;2023-05-10T12:04:59;100072.66;;;20.03;38.15
76819;BME280;65772;51.096;17.006;2023-05-10T12:07:30;100071.05;;;20.08;37.82
76819;BME280;65772;51.096;17.006;2023-05-10T12:10:12;100083.45;;;20.13;37.43
76819;BME280;65772;51.096;17.006;2023-05-10T12:12:45;100084.69;;;20.12;37.03
76819;BME280;65772;51.096;17.006;2023-05-10T12:15:21;100078.83;;;20.11;37.21
76819;BME280;65772;51.096;17.006;2023-05-10T12:17:52;100080.38;;;20.10;37.36
76819;BME280;65772;51.096;17.006;2023-05-10T12:20:26;100074.46;;;20.12;37.44
76819;BME280;65772;51.096;17.006;2023-05-10T12:22:58;100075.61;;;20.17;37.52
76819;BME280;65772;51.096;17.006;2023-05-10T12:25:33;100087.21;;;20.17;37.27
76819;BME280;65772;51.096;17.006;2023-05-10T12:28:07;100081.66;;;20.18;36.84
76819;BME280;65772;51.096;17.006;2023-05-10T12:30:56;100079.06;;;20.18;36.73
76819;BME280;65772;51.096;17.006;2023-05-10T12:33:27;100074.23;;;20.17;36.46
76819;BME280;65772;51.096;17.006;2023-05-10T12:36:05;100082.20;;;20.17;36.63
76819;BME280;65772;51.096;17.006;2023-05-10T12:38:37;100079.21;;;20.20;36.92
76819;BME280;65772;51.096;17.006;2023-05-10T12:41:09;100085.92;;;20.23;37.02
76819;BME280;65772;51.096;17.006;2023-05-10T12:43:41;100086.19;;;20.28;36.76
76819;BME280;65772;51.096;17.006;2023-05-10T12:46:12;100079.37;;;20.34;36.65
76819;BME280;65772;51.096;17.006;2023-05-10T12:48:44;100078.77;;;20.41;36.76
76819;BME280;65772;51.096;17.006;2023-05-10T12:51:15;100077.34;;;20.44;36.61
76819;BME280;65772;51.096;17.006;2023-05-10T12:53:48;100077.46;;;20.45;36.44
76819;BME280;65772;51.096;17.006;2023-05-10T12:56:19;100079.34;;;20.48;36.43
76819;BME280;65772;51.096;17.006;2023-05-10T12:58:49;100075.53;;;20.47;36.29
76819;BME280;65772;51.096;17.006;2023-05-10T13:01:20;100077.11;;;20.46;36.41
76819;BME280;65772;51.096;17.006;2023-05-10T13:03:50;100080.07;;;20.45;36.36
76819;BME280;65772;51.096;17.006;2023-05-10T13:06:21;100084.09;;;20.44;35.86
76819;BME280;65772;51.096;17.006;2023-05-10T13:08:51;100080.83;;;20.42;35.60